createdAt,value
2019-02-02T00:00:04.466Z,1.40
2019-02-02T00:01:04.988Z,1.40
2019-02-02T00:02:04.474Z,1.40
2019-02-02T00:03:04.491Z,1.40
2019-02-02T00:04:04.610Z,1.40
2019-02-02T00:05:04.650Z,1.40
2019-02-02T00:06:05.076Z,1.40
2019-02-02T00:07:04.560Z,1.40
2019-02-02T00:08:04.555Z,1.40
2019-02-02T00:09:04.319Z,1.40
2019-02-02T00:10:04.453Z,1.40
2019-02-02T00:11:04.957Z,1.40
2019-02-02T00:12:04.501Z,1.40
2019-02-02T00:13:04.594Z,1.40
2019-02-02T00:14:04.708Z,1.40
2019-02-02T00:15:04.798Z,1.40
2019-02-02T00:16:05.059Z,1.40
2019-02-02T00:17:05.177Z,1.40
2019-02-02T00:18:04.502Z,1.40
2019-02-02T00:19:04.771Z,1.40
2019-02-02T00:20:05.231Z,1.30
2019-02-02T00:21:04.616Z,1.40
2019-02-02T00:22:05.313Z,1.30
2019-02-02T00:23:04.861Z,1.30
2019-02-02T00:24:04.209Z,1.30
2019-02-02T00:25:04.694Z,1.30
2019-02-02T00:26:04.861Z,1.30
2019-02-02T00:27:04.866Z,1.30
2019-02-02T00:28:04.961Z,1.30
2019-02-02T00:29:10.139Z,1.30
2019-02-02T00:30:04.883Z,1.30
2019-02-02T00:31:04.739Z,1.30
2019-02-02T00:32:04.444Z,1.30
2019-02-02T00:33:04.615Z,1.30
2019-02-02T00:34:04.936Z,1.30
2019-02-02T00:35:05.131Z,1.30
2019-02-02T00:36:04.409Z,1.30
2019-02-02T00:37:04.478Z,1.30
2019-02-02T00:38:04.985Z,1.30
2019-02-02T00:39:05.057Z,1.30
2019-02-02T00:40:05.171Z,1.30
2019-02-02T00:41:04.343Z,1.30
2019-02-02T00:42:04.965Z,1.30
2019-02-02T00:43:04.254Z,1.30
2019-02-02T00:44:04.998Z,1.30
2019-02-02T00:45:04.264Z,1.30
2019-02-02T00:46:04.459Z,1.30
2019-02-02T00:47:04.729Z,1.30
2019-02-02T00:48:05.015Z,1.30
2019-02-02T00:49:05.161Z,1.30
2019-02-02T00:50:04.512Z,1.30
2019-02-02T00:51:04.909Z,1.30
2019-02-02T00:52:05.087Z,1.30
2019-02-02T00:53:04.169Z,1.20
2019-02-02T00:54:05.029Z,1.20
2019-02-02T00:55:04.346Z,1.20
2019-02-02T00:56:04.589Z,1.20
2019-02-02T00:57:05.052Z,1.20
2019-02-02T00:58:05.167Z,1.20
2019-02-02T00:59:05.259Z,1.20
2019-02-02T01:00:04.659Z,1.20
2019-02-02T01:01:04.954Z,1.20
2019-02-02T01:02:05.069Z,1.20
2019-02-02T01:03:05.174Z,1.20
2019-02-02T01:04:04.274Z,1.20
2019-02-02T01:05:04.319Z,1.20
2019-02-02T01:06:05.099Z,1.20
2019-02-02T01:07:05.180Z,1.20
2019-02-02T01:08:04.389Z,1.20
2019-02-02T01:09:04.678Z,1.20
2019-02-02T01:10:04.987Z,1.20
2019-02-02T01:11:04.949Z,1.20
2019-02-02T01:12:05.060Z,1.20
2019-02-02T01:13:05.225Z,1.20
2019-02-02T01:14:04.319Z,1.20
2019-02-02T01:15:04.407Z,1.20
2019-02-02T01:16:04.676Z,1.30
2019-02-02T01:17:04.869Z,1.20
2019-02-02T01:18:04.953Z,1.30
2019-02-02T01:19:04.980Z,1.30
2019-02-02T01:20:05.063Z,1.20
2019-02-02T01:21:04.770Z,1.20
2019-02-02T01:22:04.749Z,1.30
2019-02-02T01:23:05.136Z,1.20
2019-02-02T01:24:04.231Z,1.20
2019-02-02T01:25:04.215Z,1.30
2019-02-02T01:26:04.920Z,1.20
2019-02-02T01:27:05.128Z,1.20
2019-02-02T01:28:05.543Z,1.20
2019-02-02T01:29:04.454Z,1.20
2019-02-02T01:30:05.117Z,1.20
2019-02-02T01:31:05.178Z,1.20
2019-02-02T01:32:04.197Z,1.20
2019-02-02T01:33:04.547Z,1.20
2019-02-02T01:34:04.195Z,1.20
2019-02-02T01:35:04.494Z,1.20
2019-02-02T01:36:04.627Z,1.20
2019-02-02T01:37:10.190Z,1.20
2019-02-02T01:38:04.670Z,1.20
2019-02-02T01:39:04.847Z,1.20
2019-02-02T01:40:05.178Z,1.20
2019-02-02T01:41:04.216Z,1.20
2019-02-02T01:42:04.469Z,1.20
2019-02-02T01:43:04.548Z,1.20
2019-02-02T01:44:04.830Z,1.20
2019-02-02T01:45:04.963Z,1.20
2019-02-02T01:46:04.932Z,1.20
2019-02-02T01:47:04.248Z,1.20
2019-02-02T01:48:04.423Z,1.20
2019-02-02T01:49:04.804Z,1.20
2019-02-02T01:50:04.881Z,1.20
2019-02-02T01:51:05.095Z,1.20
2019-02-02T01:52:04.322Z,1.20
2019-02-02T01:53:04.804Z,1.20
2019-02-02T01:54:04.908Z,1.20
2019-02-02T01:55:04.255Z,1.20
2019-02-02T01:56:04.784Z,1.20
2019-02-02T01:57:05.107Z,1.20
2019-02-02T01:58:15.910Z,1.20
2019-02-02T01:59:04.559Z,1.20
2019-02-02T02:00:04.250Z,1.20
2019-02-02T02:01:04.945Z,1.20
2019-02-02T02:02:04.413Z,1.20
2019-02-02T02:03:04.419Z,1.20
2019-02-02T02:04:04.402Z,1.20
2019-02-02T02:05:05.084Z,1.20
2019-02-02T02:06:04.219Z,1.20
2019-02-02T02:07:04.286Z,1.20
2019-02-02T02:08:04.547Z,1.20
2019-02-02T02:09:04.634Z,1.20
2019-02-02T02:10:04.596Z,1.10
2019-02-02T02:11:04.977Z,1.20
2019-02-02T02:12:04.969Z,1.20
2019-02-02T02:13:05.019Z,1.10
2019-02-02T02:14:04.904Z,1.20
2019-02-02T02:15:04.904Z,1.20
2019-02-02T02:16:04.217Z,1.10
2019-02-02T02:17:04.710Z,1.10
2019-02-02T02:18:04.311Z,1.10
2019-02-02T02:19:04.347Z,1.10
2019-02-02T02:20:04.511Z,1.10
2019-02-02T02:21:05.033Z,1.10
2019-02-02T02:22:04.565Z,1.10
2019-02-02T02:23:04.293Z,1.10
2019-02-02T02:24:04.346Z,1.10
2019-02-02T02:25:04.573Z,1.10
2019-02-02T02:26:04.958Z,1.10
2019-02-02T02:27:05.148Z,1.10
2019-02-02T02:28:04.465Z,1.10
2019-02-02T02:29:04.631Z,1.10
2019-02-02T02:30:04.611Z,1.10
2019-02-02T02:31:04.876Z,1.10
2019-02-02T02:32:05.183Z,1.10
2019-02-02T02:33:04.280Z,1.10
2019-02-02T02:34:04.636Z,1.10
2019-02-02T02:35:04.595Z,1.10
2019-02-02T02:36:04.404Z,1.10
2019-02-02T02:37:04.519Z,1.10
2019-02-02T02:38:04.595Z,1.10
2019-02-02T02:39:04.753Z,1.10
2019-02-02T02:40:05.284Z,1.10
2019-02-02T02:41:04.673Z,1.10
2019-02-02T02:42:04.441Z,1.10
2019-02-02T02:43:04.656Z,1.10
2019-02-02T02:44:04.366Z,1.10
2019-02-02T02:45:09.528Z,1.10
2019-02-02T02:46:04.925Z,1.10
2019-02-02T02:47:05.134Z,1.10
2019-02-02T02:48:05.283Z,1.10
2019-02-02T02:49:04.349Z,1.10
2019-02-02T02:50:04.678Z,1.10
2019-02-02T02:51:04.993Z,1.10
2019-02-02T02:52:05.059Z,1.10
2019-02-02T02:53:05.102Z,1.10
2019-02-02T02:54:04.353Z,1.10
2019-02-02T02:55:04.669Z,1.10
2019-02-02T02:56:04.354Z,1.10
2019-02-02T02:57:04.782Z,1.10
2019-02-02T02:58:04.294Z,1.10
2019-02-02T02:59:05.054Z,1.10
2019-02-02T03:00:05.310Z,1.10
2019-02-02T03:01:04.449Z,1.10
2019-02-02T03:02:04.662Z,1.10
2019-02-02T03:03:04.887Z,1.10
2019-02-02T03:04:05.271Z,1.10
2019-02-02T03:05:05.171Z,1.10
2019-02-02T03:06:04.259Z,1.10
2019-02-02T03:07:04.392Z,1.10
2019-02-02T03:08:05.152Z,1.10
2019-02-02T03:09:04.411Z,1.10
2019-02-02T03:10:04.746Z,1.10
2019-02-02T03:11:05.001Z,1.10
2019-02-02T03:12:05.208Z,1.10
2019-02-02T03:13:04.578Z,1.10
2019-02-02T03:14:04.831Z,1.10
2019-02-02T03:15:04.945Z,1.10
2019-02-02T03:16:04.743Z,1.10
2019-02-02T03:17:04.857Z,1.10
2019-02-02T03:18:04.272Z,1.10
2019-02-02T03:19:04.408Z,1.10
2019-02-02T03:20:04.883Z,1.10
2019-02-02T03:21:04.879Z,1.10
2019-02-02T03:22:04.939Z,1.10
2019-02-02T03:23:05.144Z,1.10
2019-02-02T03:24:04.521Z,1.10
2019-02-02T03:25:04.787Z,1.10
2019-02-02T03:26:04.807Z,1.10
2019-02-02T03:27:04.443Z,1.10
2019-02-02T03:28:04.910Z,1.10
2019-02-02T03:29:09.296Z,1.10
2019-02-02T03:30:04.717Z,1.10
2019-02-02T03:31:05.186Z,1.10
2019-02-02T03:32:04.824Z,1.10
2019-02-02T03:33:04.866Z,1.10
2019-02-02T03:34:05.059Z,1.10
2019-02-02T03:35:05.027Z,1.10
2019-02-02T03:36:04.253Z,1.10
2019-02-02T03:37:04.355Z,1.10
2019-02-02T03:38:04.472Z,1.10
2019-02-02T03:39:05.054Z,1.10
2019-02-02T03:40:04.480Z,1.10
2019-02-02T03:41:04.781Z,1.10
2019-02-02T03:42:04.837Z,1.10
2019-02-02T03:43:05.174Z,1.10
2019-02-02T03:44:04.321Z,1.10
2019-02-02T03:45:04.304Z,1.10
2019-02-02T03:46:04.491Z,1.10
2019-02-02T03:47:04.533Z,1.10
2019-02-02T03:48:04.422Z,1.10
2019-02-02T03:49:09.468Z,1.10
2019-02-02T03:50:05.025Z,1.10
2019-02-02T03:51:04.335Z,1.10
2019-02-02T03:52:04.566Z,1.10
2019-02-02T03:53:04.834Z,1.10
2019-02-02T03:54:08.601Z,1.10
2019-02-02T03:55:04.734Z,1.10
2019-02-02T03:56:04.174Z,1.10
2019-02-02T03:57:04.475Z,1.10
2019-02-02T03:58:04.537Z,1.10
2019-02-02T03:59:06.351Z,1.10
2019-02-02T04:00:04.709Z,1.10
2019-02-02T04:01:04.754Z,1.10
2019-02-02T04:02:04.911Z,1.10
2019-02-02T04:03:04.775Z,1.10
2019-02-02T04:04:05.029Z,1.10
2019-02-02T04:05:05.128Z,1.10
2019-02-02T04:06:04.697Z,1.10
2019-02-02T04:07:04.742Z,1.10
2019-02-02T04:08:04.930Z,1.10
2019-02-02T04:09:04.231Z,1.10
2019-02-02T04:10:04.252Z,1.10
2019-02-02T04:11:04.830Z,1.10
2019-02-02T04:12:04.310Z,1.10
2019-02-02T04:13:04.589Z,1.10
2019-02-02T04:14:04.705Z,1.10
2019-02-02T04:15:04.743Z,1.10
2019-02-02T04:16:05.214Z,1.00
2019-02-02T04:17:04.289Z,1.10
2019-02-02T04:18:04.536Z,1.00
2019-02-02T04:19:04.711Z,1.00
2019-02-02T04:20:05.018Z,1.00
2019-02-02T04:21:05.047Z,1.00
2019-02-02T04:22:04.294Z,1.00
2019-02-02T04:23:04.684Z,1.00
2019-02-02T04:24:05.101Z,1.00
2019-02-02T04:25:04.269Z,1.00
2019-02-02T04:26:04.233Z,1.00
2019-02-02T04:27:04.634Z,1.00
2019-02-02T04:28:04.717Z,1.00
2019-02-02T04:29:17.473Z,1.00
2019-02-02T04:30:04.419Z,1.00
2019-02-02T04:31:05.146Z,1.00
2019-02-02T04:32:04.336Z,1.00
2019-02-02T04:33:04.946Z,1.10
2019-02-02T04:34:04.794Z,1.00
2019-02-02T04:35:04.667Z,1.00
2019-02-02T04:36:04.940Z,1.00
2019-02-02T04:37:04.410Z,1.00
2019-02-02T04:38:04.771Z,1.00
2019-02-02T04:39:04.323Z,1.00
2019-02-02T04:40:04.985Z,1.00
2019-02-02T04:41:04.773Z,1.00
2019-02-02T04:42:05.185Z,1.00
2019-02-02T04:43:04.332Z,1.00
2019-02-02T04:44:04.942Z,1.00
2019-02-02T04:45:04.962Z,1.00
2019-02-02T04:46:04.509Z,1.00
2019-02-02T04:47:04.731Z,1.00
2019-02-02T04:48:04.732Z,1.00
2019-02-02T04:49:09.532Z,1.00
2019-02-02T04:50:05.033Z,1.00
2019-02-02T04:51:05.097Z,1.00
2019-02-02T04:52:04.764Z,1.00
2019-02-02T04:53:05.143Z,1.00
2019-02-02T04:54:04.721Z,1.00
2019-02-02T04:55:04.710Z,1.00
2019-02-02T04:56:05.099Z,1.00
2019-02-02T04:57:05.161Z,1.00
2019-02-02T04:58:05.164Z,1.00
2019-02-02T04:59:04.224Z,1.00
2019-02-02T05:00:04.887Z,1.00
2019-02-02T05:01:04.972Z,1.00
2019-02-02T05:02:04.996Z,1.00
2019-02-02T05:03:05.060Z,1.00
2019-02-02T05:04:04.424Z,1.00
2019-02-02T05:05:04.830Z,1.00
2019-02-02T05:06:04.347Z,1.00
2019-02-02T05:07:04.351Z,1.00
2019-02-02T05:08:04.974Z,0.90
2019-02-02T05:09:04.631Z,1.00
2019-02-02T05:10:04.680Z,1.00
2019-02-02T05:11:05.190Z,0.90
2019-02-02T05:12:04.236Z,0.90
2019-02-02T05:13:04.664Z,0.90
2019-02-02T05:14:04.916Z,0.90
2019-02-02T05:15:05.104Z,0.90
2019-02-02T05:16:05.171Z,1.00
2019-02-02T05:17:04.567Z,0.90
2019-02-02T05:18:04.598Z,0.90
2019-02-02T05:19:04.995Z,0.90
2019-02-02T05:20:04.201Z,1.00
2019-02-02T05:21:04.319Z,0.90
2019-02-02T05:22:04.410Z,0.90
2019-02-02T05:23:05.067Z,0.90
2019-02-02T05:24:04.466Z,0.90
2019-02-02T05:25:05.459Z,1.00
2019-02-02T05:26:04.877Z,1.00
2019-02-02T05:27:04.317Z,1.00
2019-02-02T05:28:04.770Z,1.00
2019-02-02T05:29:10.117Z,1.00
2019-02-02T05:30:04.564Z,0.90
2019-02-02T05:31:04.635Z,1.00
2019-02-02T05:32:04.749Z,1.00
2019-02-02T05:33:04.755Z,1.00
2019-02-02T05:34:04.849Z,1.00
2019-02-02T05:35:04.430Z,0.90
2019-02-02T05:36:05.109Z,1.00
2019-02-02T05:37:05.147Z,1.00
2019-02-02T05:38:05.195Z,1.00
2019-02-02T05:39:05.283Z,1.00
2019-02-02T05:40:04.597Z,1.00
2019-02-02T05:41:04.233Z,1.00
2019-02-02T05:42:04.379Z,1.00
2019-02-02T05:43:04.588Z,1.00
2019-02-02T05:44:04.630Z,1.00
2019-02-02T05:45:04.763Z,1.00
2019-02-02T05:46:04.656Z,1.00
2019-02-02T05:47:04.839Z,1.00
2019-02-02T05:48:04.956Z,1.00
2019-02-02T05:49:05.041Z,1.00
2019-02-02T05:50:05.174Z,1.00
2019-02-02T05:51:04.570Z,1.00
2019-02-02T05:52:04.670Z,1.00
2019-02-02T05:53:05.090Z,1.00
2019-02-02T05:54:04.672Z,1.00
2019-02-02T05:55:04.604Z,1.00
2019-02-02T05:56:04.808Z,1.00
2019-02-02T05:57:04.999Z,0.90
2019-02-02T05:58:05.188Z,0.90
2019-02-02T05:59:04.496Z,0.90
2019-02-02T06:00:05.201Z,1.00
2019-02-02T06:01:04.510Z,0.90
2019-02-02T06:02:04.671Z,1.00
2019-02-02T06:03:04.350Z,0.90
2019-02-02T06:04:04.363Z,0.90
2019-02-02T06:05:04.857Z,1.00
2019-02-02T06:06:05.075Z,1.00
2019-02-02T06:07:05.142Z,0.90
2019-02-02T06:08:04.789Z,1.00
2019-02-02T06:09:04.963Z,0.90
2019-02-02T06:10:05.114Z,0.90
2019-02-02T06:11:04.462Z,1.00
2019-02-02T06:12:04.505Z,1.00
2019-02-02T06:13:04.974Z,1.00
2019-02-02T06:14:04.296Z,1.00
2019-02-02T06:15:04.439Z,1.00
2019-02-02T06:16:04.483Z,1.00
2019-02-02T06:17:04.713Z,1.00
2019-02-02T06:18:04.672Z,1.00
2019-02-02T06:19:04.322Z,1.00
2019-02-02T06:20:04.567Z,1.00
2019-02-02T06:21:04.617Z,1.00
2019-02-02T06:22:05.182Z,1.00
2019-02-02T06:23:04.846Z,1.00
2019-02-02T06:24:05.053Z,1.00
2019-02-02T06:25:05.013Z,1.00
2019-02-02T06:26:04.534Z,1.00
2019-02-02T06:27:04.870Z,1.00
2019-02-02T06:28:05.221Z,1.00
2019-02-02T06:29:09.264Z,1.00
2019-02-02T06:30:04.910Z,1.00
2019-02-02T06:31:04.717Z,1.00
2019-02-02T06:32:11.387Z,1.00
2019-02-02T06:33:04.804Z,1.00
2019-02-02T06:34:04.900Z,1.00
2019-02-02T06:35:04.248Z,1.00
2019-02-02T06:36:04.324Z,1.00
2019-02-02T06:37:04.458Z,1.00
2019-02-02T06:38:04.543Z,1.00
2019-02-02T06:39:04.870Z,1.00
2019-02-02T06:40:04.366Z,1.00
2019-02-02T06:41:04.729Z,1.00
2019-02-02T06:42:04.837Z,1.00
2019-02-02T06:43:05.028Z,1.00
2019-02-02T06:44:04.544Z,1.00
2019-02-02T06:45:04.515Z,1.00
2019-02-02T06:46:05.138Z,1.00
2019-02-02T06:47:04.268Z,1.00
2019-02-02T06:48:04.888Z,1.00
2019-02-02T06:49:05.061Z,1.00
2019-02-02T06:50:05.294Z,1.00
2019-02-02T06:51:04.360Z,1.00
2019-02-02T06:52:04.407Z,1.00
2019-02-02T06:53:04.816Z,1.00
2019-02-02T06:54:05.132Z,1.00
2019-02-02T06:55:04.696Z,1.00
2019-02-02T06:56:04.450Z,1.00
2019-02-02T06:57:04.610Z,1.00
2019-02-02T06:58:04.507Z,1.00
2019-02-02T06:59:04.755Z,1.00
2019-02-02T07:00:15.491Z,1.00
2019-02-02T07:01:09.918Z,1.00
2019-02-02T07:02:04.403Z,1.00
2019-02-02T07:03:04.317Z,1.00
2019-02-02T07:04:04.683Z,1.00
2019-02-02T07:05:04.960Z,1.00
2019-02-02T07:06:05.044Z,1.00
2019-02-02T07:07:05.015Z,1.00
2019-02-02T07:08:05.268Z,1.00
2019-02-02T07:09:04.584Z,1.00
2019-02-02T07:10:04.715Z,1.00
2019-02-02T07:11:04.937Z,1.00
2019-02-02T07:12:05.151Z,1.00
2019-02-02T07:13:04.225Z,1.00
2019-02-02T07:14:04.554Z,1.00
2019-02-02T07:15:04.615Z,1.00
2019-02-02T07:16:05.013Z,1.00
2019-02-02T07:17:04.301Z,1.00
2019-02-02T07:18:04.925Z,1.00
2019-02-02T07:19:04.842Z,1.00
2019-02-02T07:20:05.082Z,1.00
2019-02-02T07:21:05.104Z,1.00
2019-02-02T07:22:05.118Z,1.00
2019-02-02T07:23:04.525Z,1.00
2019-02-02T07:24:04.713Z,1.00
2019-02-02T07:25:04.304Z,1.00
2019-02-02T07:26:04.558Z,1.00
2019-02-02T07:27:05.007Z,1.00
2019-02-02T07:28:04.451Z,1.00
2019-02-02T07:29:04.715Z,1.00
2019-02-02T07:30:05.323Z,1.00
2019-02-02T07:31:04.600Z,1.00
2019-02-02T07:32:04.644Z,1.00
2019-02-02T07:33:04.558Z,1.00
2019-02-02T07:34:04.669Z,1.00
2019-02-02T07:35:09.968Z,1.00
2019-02-02T07:36:04.508Z,1.00
2019-02-02T07:37:04.463Z,1.00
2019-02-02T07:38:04.748Z,1.00
2019-02-02T07:39:04.798Z,1.00
2019-02-02T07:40:04.945Z,1.00
2019-02-02T07:41:04.774Z,1.00
2019-02-02T07:42:04.816Z,1.00
2019-02-02T07:43:05.021Z,1.00
2019-02-02T07:44:04.235Z,1.00
2019-02-02T07:45:04.670Z,1.00
2019-02-02T07:46:14.689Z,1.00
2019-02-02T07:47:04.789Z,1.00
2019-02-02T07:48:04.734Z,1.10
2019-02-02T07:49:04.968Z,1.10
2019-02-02T07:50:04.522Z,1.10
2019-02-02T07:51:04.496Z,1.10
2019-02-02T07:52:04.721Z,1.10
2019-02-02T07:53:04.691Z,1.10
2019-02-02T07:54:04.750Z,1.10
2019-02-02T07:55:04.878Z,1.10
2019-02-02T07:56:04.278Z,1.10
2019-02-02T07:57:04.498Z,1.10
2019-02-02T07:58:04.426Z,1.10
2019-02-02T07:59:04.799Z,1.10
2019-02-02T08:00:04.277Z,1.10
2019-02-02T08:01:04.707Z,1.10
2019-02-02T08:02:04.717Z,1.10
2019-02-02T08:03:05.137Z,1.10
2019-02-02T08:04:04.349Z,1.10
2019-02-02T08:05:04.365Z,1.10
2019-02-02T08:06:04.557Z,1.10
2019-02-02T08:07:04.751Z,1.10
2019-02-02T08:08:05.033Z,1.10
2019-02-02T08:09:04.399Z,1.10
2019-02-02T08:10:04.577Z,1.10
2019-02-02T08:11:05.098Z,1.10
2019-02-02T08:12:04.245Z,1.20
2019-02-02T08:13:04.342Z,1.20
2019-02-02T08:14:04.353Z,1.20
2019-02-02T08:15:04.608Z,1.20
2019-02-02T08:16:05.138Z,1.20
2019-02-02T08:17:04.424Z,1.20
2019-02-02T08:18:04.621Z,1.20
2019-02-02T08:19:04.499Z,1.20
2019-02-02T08:20:04.662Z,1.20
2019-02-02T08:21:04.590Z,1.20
2019-02-02T08:22:04.280Z,1.20
2019-02-02T08:23:04.917Z,1.20
2019-02-02T08:24:04.976Z,1.20
2019-02-02T08:25:04.459Z,1.20
2019-02-02T08:26:05.042Z,1.20
2019-02-02T08:27:04.372Z,1.30
2019-02-02T08:28:05.064Z,1.30
2019-02-02T08:29:10.144Z,1.30
2019-02-02T08:30:04.506Z,1.30
2019-02-02T08:31:05.047Z,1.30
2019-02-02T08:32:05.071Z,1.30
2019-02-02T08:33:04.370Z,1.30
2019-02-02T08:34:04.475Z,1.30
2019-02-02T08:35:04.773Z,1.30
2019-02-02T08:36:04.949Z,1.30
2019-02-02T08:37:04.882Z,1.30
2019-02-02T08:38:05.062Z,1.30
2019-02-02T08:39:05.032Z,1.30
2019-02-02T08:40:04.651Z,1.40
2019-02-02T08:41:04.722Z,1.40
2019-02-02T08:42:04.869Z,1.40
2019-02-02T08:43:04.966Z,1.40
2019-02-02T08:44:04.977Z,1.40
2019-02-02T08:45:04.478Z,1.40
2019-02-02T08:46:04.654Z,1.40
2019-02-02T08:47:04.616Z,1.40
2019-02-02T08:48:04.535Z,1.40
2019-02-02T08:49:04.629Z,1.40
2019-02-02T08:50:04.744Z,1.40
2019-02-02T08:51:04.987Z,1.40
2019-02-02T08:52:05.094Z,1.40
2019-02-02T08:53:05.241Z,1.40
2019-02-02T08:54:04.335Z,1.40
2019-02-02T08:55:04.710Z,1.40
2019-02-02T08:56:04.224Z,1.40
2019-02-02T08:57:04.523Z,1.50
2019-02-02T08:58:05.303Z,1.40
2019-02-02T08:59:04.655Z,1.40
2019-02-02T09:00:04.836Z,1.50
2019-02-02T09:01:04.592Z,1.50
2019-02-02T09:02:04.775Z,1.50
2019-02-02T09:03:04.595Z,1.50
2019-02-02T09:04:04.659Z,1.50
2019-02-02T09:05:04.839Z,1.50
2019-02-02T09:06:04.301Z,1.50
2019-02-02T09:07:04.589Z,1.50
2019-02-02T09:08:04.807Z,1.50
2019-02-02T09:09:04.410Z,1.50
2019-02-02T09:10:04.547Z,1.50
2019-02-02T09:11:04.812Z,1.50
2019-02-02T09:12:04.912Z,1.50
2019-02-02T09:13:05.255Z,1.50
2019-02-02T09:14:04.528Z,1.50
2019-02-02T09:15:04.595Z,1.50
2019-02-02T09:16:04.739Z,1.60
2019-02-02T09:17:04.890Z,1.60
2019-02-02T09:18:04.368Z,1.60
2019-02-02T09:19:04.447Z,1.60
2019-02-02T09:20:04.537Z,1.60
2019-02-02T09:21:04.884Z,1.60
2019-02-02T09:22:04.419Z,1.60
2019-02-02T09:23:06.530Z,1.60
2019-02-02T09:24:04.407Z,1.60
2019-02-02T09:25:04.533Z,1.60
2019-02-02T09:26:05.058Z,1.60
2019-02-02T09:27:04.553Z,1.60
2019-02-02T09:28:04.719Z,1.60
2019-02-02T09:29:10.576Z,1.60
2019-02-02T09:30:05.123Z,1.60
2019-02-02T09:31:15.046Z,1.60
2019-02-02T09:32:04.543Z,1.60
2019-02-02T09:33:04.703Z,1.60
2019-02-02T09:34:05.002Z,1.60
2019-02-02T09:35:04.490Z,1.70
2019-02-02T09:36:04.758Z,1.60
2019-02-02T09:37:04.805Z,1.60
2019-02-02T09:38:05.105Z,1.60
2019-02-02T09:39:04.519Z,1.60
2019-02-02T09:40:04.535Z,1.70
2019-02-02T09:41:05.041Z,1.70
2019-02-02T09:42:05.277Z,1.70
2019-02-02T09:43:04.498Z,1.70
2019-02-02T09:44:04.646Z,1.70
2019-02-02T09:45:04.605Z,1.70
2019-02-02T09:46:04.871Z,1.70
2019-02-02T09:47:05.181Z,1.70
2019-02-02T09:48:04.651Z,1.70
2019-02-02T09:49:05.220Z,1.70
2019-02-02T09:50:04.225Z,1.70
2019-02-02T09:51:04.458Z,1.70
2019-02-02T09:52:04.702Z,1.70
2019-02-02T09:53:04.709Z,1.70
2019-02-02T09:54:04.226Z,1.70
2019-02-02T09:55:04.733Z,1.70
2019-02-02T09:56:04.888Z,1.70
2019-02-02T09:57:04.452Z,1.70
2019-02-02T09:58:05.077Z,1.80
2019-02-02T09:59:04.585Z,1.80
2019-02-02T10:00:04.449Z,1.80
2019-02-02T10:01:04.852Z,1.80
2019-02-02T10:02:04.473Z,1.80
2019-02-02T10:03:04.647Z,1.80
2019-02-02T10:04:05.227Z,1.80
2019-02-02T10:05:04.577Z,1.80
2019-02-02T10:06:04.848Z,1.80
2019-02-02T10:07:04.307Z,1.80
2019-02-02T10:08:04.643Z,1.80
2019-02-02T10:09:04.884Z,1.80
2019-02-02T10:10:04.405Z,1.80
2019-02-02T10:11:04.906Z,1.80
2019-02-02T10:12:05.188Z,1.90
2019-02-02T10:13:04.230Z,1.90
2019-02-02T10:14:04.402Z,1.90
2019-02-02T10:15:04.255Z,1.90
2019-02-02T10:16:04.471Z,1.90
2019-02-02T10:17:04.627Z,1.90
2019-02-02T10:18:04.743Z,1.90
2019-02-02T10:19:04.588Z,1.90
2019-02-02T10:20:04.758Z,1.90
2019-02-02T10:21:04.477Z,1.90
2019-02-02T10:22:04.387Z,1.90
2019-02-02T10:23:04.957Z,1.90
2019-02-02T10:24:05.180Z,1.90
2019-02-02T10:25:04.732Z,2.00
2019-02-02T10:26:04.838Z,2.00
2019-02-02T10:27:05.150Z,1.90
2019-02-02T10:28:04.642Z,2.00
2019-02-02T10:29:09.595Z,2.00
2019-02-02T10:30:04.468Z,2.00
2019-02-02T10:31:04.842Z,2.00
2019-02-02T10:32:04.306Z,2.00
2019-02-02T10:33:04.539Z,2.00
2019-02-02T10:34:04.635Z,2.00
2019-02-02T10:35:04.677Z,2.00
2019-02-02T10:36:05.063Z,2.00
2019-02-02T10:37:04.340Z,2.00
2019-02-02T10:38:04.426Z,2.00
2019-02-02T10:39:04.503Z,2.00
2019-02-02T10:40:04.376Z,2.00
2019-02-02T10:41:05.040Z,2.00
2019-02-02T10:42:04.457Z,2.00
2019-02-02T10:43:04.439Z,2.00
2019-02-02T10:44:04.499Z,2.00
2019-02-02T10:45:04.937Z,2.00
2019-02-02T10:46:05.135Z,2.00
2019-02-02T10:47:04.566Z,2.10
2019-02-02T10:48:04.963Z,2.10
2019-02-02T10:49:04.979Z,2.00
2019-02-02T10:50:04.741Z,2.10
2019-02-02T10:51:04.334Z,2.10
2019-02-02T10:52:04.809Z,2.10
2019-02-02T10:53:04.906Z,2.10
2019-02-02T10:54:05.539Z,2.10
2019-02-02T10:55:04.462Z,2.10
2019-02-02T10:56:04.726Z,2.10
2019-02-02T10:57:04.796Z,2.10
2019-02-02T10:58:04.989Z,2.10
2019-02-02T10:59:04.945Z,2.10
2019-02-02T11:00:10.130Z,2.10
2019-02-02T11:01:04.653Z,2.10
2019-02-02T11:02:04.644Z,2.10
2019-02-02T11:03:04.738Z,2.10
2019-02-02T11:04:04.920Z,2.10
2019-02-02T11:05:04.272Z,2.10
2019-02-02T11:06:04.751Z,2.10
2019-02-02T11:07:05.109Z,2.10
2019-02-02T11:08:04.697Z,2.10
2019-02-02T11:09:05.088Z,2.10
2019-02-02T11:10:05.389Z,2.10
2019-02-02T11:11:04.394Z,2.10
2019-02-02T11:12:04.685Z,2.10
2019-02-02T11:13:05.213Z,2.10
2019-02-02T11:14:04.791Z,2.20
2019-02-02T11:15:05.022Z,2.20
2019-02-02T11:16:04.723Z,2.20
2019-02-02T11:17:04.438Z,2.20
2019-02-02T11:18:05.116Z,2.20
2019-02-02T11:19:06.221Z,2.20
2019-02-02T11:20:04.521Z,2.20
2019-02-02T11:21:04.822Z,2.20
2019-02-02T11:22:04.450Z,2.20
2019-02-02T11:23:05.202Z,2.20
2019-02-02T11:24:04.709Z,2.20
2019-02-02T11:25:06.625Z,2.30
2019-02-02T11:26:04.832Z,2.20
2019-02-02T11:27:04.757Z,2.30
2019-02-02T11:28:04.511Z,2.30
2019-02-02T11:29:04.740Z,2.30
2019-02-02T11:30:05.190Z,2.30
2019-02-02T11:31:04.884Z,2.30
2019-02-02T11:32:04.974Z,2.30
2019-02-02T11:33:05.142Z,2.30
2019-02-02T11:34:09.824Z,2.30
2019-02-02T11:35:04.281Z,2.30
2019-02-02T11:36:04.824Z,2.30
2019-02-02T11:37:04.380Z,2.30
2019-02-02T11:38:04.512Z,2.30
2019-02-02T11:39:04.623Z,2.30
2019-02-02T11:40:04.655Z,2.30
2019-02-02T11:41:04.714Z,2.30
2019-02-02T11:42:05.250Z,2.30
2019-02-02T11:43:04.290Z,2.30
2019-02-02T11:44:04.655Z,2.30
2019-02-02T11:45:04.714Z,2.30
2019-02-02T11:46:04.809Z,2.30
2019-02-02T11:47:04.618Z,2.30
2019-02-02T11:48:04.710Z,2.30
2019-02-02T11:49:04.617Z,2.40
2019-02-02T11:50:05.094Z,2.30
2019-02-02T11:51:04.498Z,2.30
2019-02-02T11:52:04.516Z,2.40
2019-02-02T11:53:04.763Z,2.40
2019-02-02T11:54:04.890Z,2.40
2019-02-02T11:55:04.523Z,2.40
2019-02-02T11:56:05.085Z,2.40
2019-02-02T11:57:05.005Z,2.40
2019-02-02T11:58:05.078Z,2.40
2019-02-02T11:59:05.075Z,2.40
2019-02-02T12:00:04.359Z,2.40
2019-02-02T12:01:04.762Z,2.40
2019-02-02T12:02:14.189Z,2.40
2019-02-02T12:03:04.642Z,2.40
2019-02-02T12:04:04.517Z,2.40
2019-02-02T12:05:04.608Z,2.40
2019-02-02T12:06:04.944Z,2.40
2019-02-02T12:07:05.120Z,2.40
2019-02-02T12:08:05.130Z,2.40
2019-02-02T12:09:04.607Z,2.40
2019-02-02T12:10:04.571Z,2.40
2019-02-02T12:11:04.894Z,2.40
2019-02-02T12:12:05.025Z,2.40
2019-02-02T12:13:04.738Z,2.40
2019-02-02T12:14:04.842Z,2.40
2019-02-02T12:15:05.180Z,2.30
2019-02-02T12:16:04.765Z,2.40
2019-02-02T12:17:04.931Z,2.40
2019-02-02T12:18:04.923Z,2.40
2019-02-02T12:19:04.618Z,2.30
2019-02-02T12:20:04.616Z,2.40
2019-02-02T12:21:04.741Z,2.40
2019-02-02T12:22:04.942Z,2.40
2019-02-02T12:23:05.032Z,2.40
2019-02-02T12:24:13.256Z,2.40
2019-02-02T12:25:04.661Z,2.40
2019-02-02T12:26:04.350Z,2.40
2019-02-02T12:27:04.422Z,2.40
2019-02-02T12:28:04.488Z,2.40
2019-02-02T12:29:09.861Z,2.40
2019-02-02T12:30:04.335Z,2.40
2019-02-02T12:31:04.434Z,2.40
2019-02-02T12:32:04.541Z,2.40
2019-02-02T12:33:05.176Z,2.50
2019-02-02T12:34:04.296Z,2.40
2019-02-02T12:35:04.900Z,2.50
2019-02-02T12:36:04.891Z,2.50
2019-02-02T12:37:04.897Z,2.50
2019-02-02T12:38:05.074Z,2.50
2019-02-02T12:39:04.794Z,2.50
2019-02-02T12:40:05.299Z,2.50
2019-02-02T12:41:04.347Z,2.50
2019-02-02T12:42:05.022Z,2.50
2019-02-02T12:43:05.005Z,2.50
2019-02-02T12:44:05.208Z,2.50
2019-02-02T12:45:05.178Z,2.50
2019-02-02T12:46:04.491Z,2.50
2019-02-02T12:47:05.099Z,2.50
2019-02-02T12:48:04.770Z,2.50
2019-02-02T12:49:04.501Z,2.50
2019-02-02T12:50:05.109Z,2.50
2019-02-02T12:51:04.396Z,2.50
2019-02-02T12:52:04.653Z,2.50
2019-02-02T12:53:04.949Z,2.50
2019-02-02T12:54:05.184Z,2.50
2019-02-02T12:55:04.178Z,2.50
2019-02-02T12:56:04.294Z,2.50
2019-02-02T12:57:04.371Z,2.50
2019-02-02T12:58:04.404Z,2.50
2019-02-02T12:59:04.980Z,2.60
2019-02-02T13:00:05.120Z,2.60
2019-02-02T13:01:04.543Z,2.60
2019-02-02T13:02:05.103Z,2.60
2019-02-02T13:03:04.728Z,2.60
2019-02-02T13:04:05.472Z,2.60
2019-02-02T13:05:04.484Z,2.60
2019-02-02T13:06:04.611Z,2.60
2019-02-02T13:07:04.296Z,2.60
2019-02-02T13:08:05.265Z,2.60
2019-02-02T13:09:04.271Z,2.60
2019-02-02T13:10:04.425Z,2.60
2019-02-02T13:11:04.951Z,2.70
2019-02-02T13:12:04.990Z,2.60
2019-02-02T13:13:05.039Z,2.60
2019-02-02T13:14:05.013Z,2.60
2019-02-02T13:15:04.625Z,2.60
2019-02-02T13:16:04.503Z,2.60
2019-02-02T13:17:04.275Z,2.60
2019-02-02T13:18:04.442Z,2.60